Terminal Aerodrome Forecast
Issued by NWS St Louis, MO

Home | Current Version | Previous Version | Text Only | Print | Product List | Glossary On
Versions: 1 2 3 4 5 6 7 8 9 10 11 12 13 14 15 16 17 18 19 20
000
FTUS43 KLSX 151540 AAC
TAFCOU
TAF AMD
KCOU 151540Z 1516/1612 30011G19KT P6SM FEW022
     FM151800 32013G22KT P6SM SCT200
     FM152300 31010KT P6SM SKC
     FM160300 32006KT P6SM SKC=

USA.gov is the U.S. government's official web portal to all federal, state and local government web resources and services.